Huvudsida
METAR-TAF:

METAR-TAF

Flygplatser :

Genèves internationella flygplats

Genève, Schweiz

latitud: 46-15N, longitud: 006-08E, höjd: 420 m

Aktuellt väderrapport

Denna rapport gjordes för 26 minuter sedan, klockan 01:20 UTC
Vind 15 kt från nord/nordost
Temperatur 2°C
Fuktighet 64%
Tryck 1036 hPa
Sikt 10 km eller mer
Spridda moln på en höjd av 2200 ft
Spridda moln på en höjd av 2700 ft

METAR: LSGG 200120Z AUTO 03015KT 9999 SCT022 SCT027 02/M04 Q1036 NOSIG

Tid: 02:46 (01:46 UTC)

Väderprognos

Denna rapport gjordes för 2 timmar och 21 minuter sedan, klockan 23:25 UTC
Prognos gäller från 20 kl. 00 UTC till 21 kl. 06 UTC
Vind 18 kt från nord/nordost
Sikt 10 km eller mer
Spridda moln på en höjd av 3000 ft
Blir
från 20 kl. 09 UTC till 20 kl. 12 UTC
Vind 8 kt från nord/nordost
Blir
från 21 kl. 00 UTC till 21 kl. 03 UTC
Brutna moln på en höjd av 1400 ft

TAF: LSGG 192325Z 2000/2106 03018KT 9999 SCT030 TX03/2015Z TN01/2006Z TN01/2106Z BECMG 2009/2012 03008KT BECMG 2100/2103 BKN014

Aktuella väderrapporter och prognoser från 4000 flygplatser (METAR- och TAF-rapporter).

De tillgängliga stationerna syns som gula och röda prickar på kartan.

För musen över prickarna för att se namnen på stationerna.

Klicka sedan för att få väderrapporter och prognoser.

För att ändra kartan: Klicka på de gröna knapparna med ett svart kors på för att zooma in; den gröna knappen med ett streck på för att zooma ut; eller på de gröna pilarna för angränsande kartor.


METAR-TAF: